createdAt,value
2022-12-17T00:02:42.594Z,19.80
2022-12-17T00:05:28.547Z,19.98
2022-12-17T00:08:18.178Z,20.75
2022-12-17T00:11:04.375Z,20.83
2022-12-17T00:13:51.267Z,20.13
2022-12-17T00:16:37.910Z,18.75
2022-12-17T00:19:23.774Z,19.38
2022-12-17T00:22:09.654Z,19.63
2022-12-17T00:24:56.405Z,17.67
2022-12-17T00:27:42.374Z,18.92
2022-12-17T00:30:30.034Z,18.45
2022-12-17T00:33:16.037Z,19.88
2022-12-17T00:35:58.621Z,19.63
2022-12-17T00:38:44.678Z,18.80
2022-12-17T00:41:30.475Z,19.75
2022-12-17T00:44:20.389Z,20.63
2022-12-17T00:47:07.676Z,19.92
2022-12-17T00:49:53.637Z,18.63
2022-12-17T00:52:42.147Z,19.63
2022-12-17T00:55:28.376Z,17.88
2022-12-17T00:58:15.068Z,19.33
2022-12-17T01:01:01.550Z,16.45
2022-12-17T01:03:48.634Z,17.65
2022-12-17T01:06:34.734Z,16.58
2022-12-17T01:09:20.326Z,18.15
2022-12-17T01:12:06.113Z,20.02
2022-12-17T01:14:51.671Z,18.30
2022-12-17T01:17:37.768Z,18.35
2022-12-17T01:20:26.050Z,18.55
2022-12-17T01:23:11.660Z,19.85
2022-12-17T01:25:57.658Z,18.65
2022-12-17T01:28:44.479Z,17.70
2022-12-17T01:31:39.022Z,20.00
2022-12-17T01:34:39.514Z,19.30
2022-12-17T01:37:26.708Z,17.77
2022-12-17T01:40:12.764Z,18.45
2022-12-17T01:42:59.863Z,19.58
2022-12-17T01:45:46.253Z,16.80
2022-12-17T01:48:34.396Z,14.73
2022-12-17T01:51:20.976Z,18.55
2022-12-17T01:54:06.286Z,16.52
2022-12-17T01:56:53.022Z,19.33
2022-12-17T01:59:43.796Z,18.50
2022-12-17T02:02:29.687Z,19.35
2022-12-17T02:05:15.519Z,20.02
2022-12-17T02:08:17.422Z,17.55
2022-12-17T02:11:08.712Z,19.13
2022-12-17T02:13:58.419Z,19.55
2022-12-17T02:16:49.903Z,18.17
2022-12-17T02:19:42.818Z,18.27
2022-12-17T02:22:34.493Z,18.08
2022-12-17T02:25:24.875Z,18.05
2022-12-17T02:28:12.310Z,18.58
2022-12-17T02:30:54.871Z,18.30
2022-12-17T02:33:40.746Z,19.02
2022-12-17T02:36:27.253Z,18.23
2022-12-17T02:39:13.182Z,16.30
2022-12-17T02:42:02.077Z,18.42
2022-12-17T02:44:50.320Z,15.38
2022-12-17T02:47:37.578Z,16.80
2022-12-17T02:50:24.143Z,16.05
2022-12-17T02:53:09.387Z,18.75
2022-12-17T02:55:55.948Z,19.13
2022-12-17T02:58:42.104Z,15.30
2022-12-17T03:01:29.258Z,18.08
2022-12-17T03:04:15.211Z,16.33
2022-12-17T03:07:02.650Z,16.17
2022-12-17T03:09:48.749Z,16.90
2022-12-17T03:12:34.538Z,18.42
2022-12-17T03:15:20.245Z,17.98
2022-12-17T03:18:07.163Z,18.08
2022-12-17T03:20:53.059Z,13.30
2022-12-17T03:23:39.151Z,16.05
2022-12-17T03:26:25.585Z,17.23
2022-12-17T03:29:11.026Z,17.50
2022-12-17T03:31:56.759Z,16.45
2022-12-17T03:34:43.964Z,16.35
2022-12-17T03:37:29.468Z,17.40
2022-12-17T03:40:15.332Z,8.43
2022-12-17T03:43:00.996Z,15.57
2022-12-17T03:45:46.755Z,14.40
2022-12-17T03:48:33.741Z,15.73
2022-12-17T03:51:29.905Z,16.92
2022-12-17T03:54:24.264Z,12.30
2022-12-17T03:57:15.793Z,12.55
2022-12-17T04:00:01.868Z,13.43
2022-12-17T04:02:47.913Z,14.45
2022-12-17T04:05:33.977Z,13.45
2022-12-17T04:08:21.291Z,12.93
2022-12-17T04:11:07.236Z,10.55
2022-12-17T04:13:53.182Z,14.80
2022-12-17T04:16:38.860Z,16.10
2022-12-17T04:19:24.630Z,16.00
2022-12-17T04:22:10.696Z,17.20
2022-12-17T04:24:57.590Z,16.63
2022-12-17T04:27:43.287Z,13.15
2022-12-17T04:30:30.032Z,16.73
2022-12-17T04:33:24.384Z,13.82
2022-12-17T04:36:10.377Z,15.80
2022-12-17T04:38:56.219Z,16.65
2022-12-17T04:41:43.602Z,16.13
2022-12-17T04:44:29.567Z,17.08
2022-12-17T04:47:15.485Z,17.75
2022-12-17T04:50:01.578Z,17.38
2022-12-17T04:52:47.548Z,18.35
2022-12-17T04:55:33.410Z,18.38
2022-12-17T04:58:22.505Z,15.45
2022-12-17T05:01:09.964Z,20.02
2022-12-17T05:03:56.131Z,19.80
2022-12-17T05:06:42.097Z,19.48
2022-12-17T05:09:28.000Z,17.58
2022-12-17T05:12:13.906Z,20.08
2022-12-17T05:15:01.259Z,19.05
2022-12-17T05:17:47.093Z,18.60
2022-12-17T05:20:33.012Z,18.77
2022-12-17T05:23:23.553Z,19.00
2022-12-17T05:26:16.406Z,18.15
2022-12-17T05:29:02.493Z,19.70
2022-12-17T05:31:49.706Z,20.15
2022-12-17T05:34:35.667Z,21.63
2022-12-17T05:37:21.547Z,21.35
2022-12-17T05:40:12.437Z,21.70
2022-12-17T05:42:58.631Z,19.67
2022-12-17T05:45:44.548Z,20.15
2022-12-17T05:48:31.660Z,18.38
2022-12-17T05:51:17.448Z,16.20
2022-12-17T05:54:03.395Z,13.68
2022-12-17T05:56:49.317Z,18.90
2022-12-17T05:59:35.232Z,16.77
2022-12-17T06:02:21.247Z,18.77
2022-12-17T06:05:08.515Z,17.70
2022-12-17T06:07:54.429Z,16.42
2022-12-17T06:10:40.472Z,13.35
2022-12-17T06:13:26.394Z,13.60
2022-12-17T06:16:12.918Z,16.58
2022-12-17T06:18:58.816Z,18.05
2022-12-17T06:21:46.046Z,16.15
2022-12-17T06:24:32.068Z,18.50
2022-12-17T06:27:18.021Z,20.00
2022-12-17T06:30:03.961Z,17.67
2022-12-17T06:32:49.859Z,21.50
2022-12-17T06:35:35.562Z,17.52
2022-12-17T06:38:24.399Z,19.88
2022-12-17T06:41:10.417Z,18.38
2022-12-17T06:43:56.155Z,18.58
2022-12-17T06:46:42.189Z,15.98
2022-12-17T06:49:28.006Z,12.85
2022-12-17T06:52:13.891Z,13.25
2022-12-17T06:55:01.029Z,16.45
2022-12-17T06:57:50.376Z,11.77
2022-12-17T07:00:36.684Z,14.80
2022-12-17T07:03:22.622Z,15.07
2022-12-17T07:06:08.416Z,13.07
2022-12-17T07:08:54.337Z,18.13
2022-12-17T07:11:41.445Z,19.15
2022-12-17T07:14:27.282Z,19.08
2022-12-17T07:17:21.574Z,20.17
2022-12-17T07:20:07.325Z,19.08
2022-12-17T07:22:53.303Z,19.13
2022-12-17T07:25:44.346Z,21.27
2022-12-17T07:28:33.087Z,18.45
2022-12-17T07:31:19.011Z,21.63
2022-12-17T07:34:04.991Z,20.10
2022-12-17T07:36:51.036Z,16.55
2022-12-17T07:39:37.039Z,18.20
2022-12-17T07:42:23.176Z,20.23
2022-12-17T07:45:10.384Z,18.20
2022-12-17T07:47:56.458Z,19.85
2022-12-17T07:50:42.395Z,11.55
2022-12-17T07:53:28.303Z,19.83
2022-12-17T07:56:14.279Z,20.67
2022-12-17T07:59:00.070Z,20.63
2022-12-17T08:01:47.392Z,21.55
2022-12-17T08:04:33.500Z,19.40
2022-12-17T08:07:19.266Z,18.80
2022-12-17T08:10:05.080Z,17.00
2022-12-17T08:12:51.120Z,16.65
2022-12-17T08:15:36.867Z,14.10
2022-12-17T08:18:26.766Z,13.57
2022-12-17T08:21:12.881Z,13.32
2022-12-17T08:23:58.717Z,19.30
2022-12-17T08:26:48.144Z,18.88
2022-12-17T08:29:34.292Z,17.83
2022-12-17T08:32:19.324Z,16.13
2022-12-17T08:35:06.562Z,19.33
2022-12-17T08:37:52.482Z,14.75
2022-12-17T08:40:38.326Z,17.42
2022-12-17T08:43:24.298Z,16.00
2022-12-17T08:46:10.740Z,17.38
2022-12-17T08:48:56.683Z,18.10
2022-12-17T08:51:43.986Z,20.42
2022-12-17T08:54:30.087Z,18.23
2022-12-17T08:57:27.019Z,19.92
2022-12-17T09:00:16.610Z,21.10
2022-12-17T09:03:02.542Z,14.40
2022-12-17T09:05:48.617Z,20.10
2022-12-17T09:08:35.869Z,20.23
2022-12-17T09:11:21.841Z,20.15
2022-12-17T09:14:19.236Z,20.40
2022-12-17T09:17:05.678Z,21.23
2022-12-17T09:19:53.818Z,19.88
2022-12-17T09:22:39.918Z,20.85
2022-12-17T09:25:27.606Z,20.98
2022-12-17T09:28:13.581Z,20.67
2022-12-17T09:30:59.526Z,20.85
2022-12-17T09:33:45.509Z,20.08
2022-12-17T09:36:31.418Z,20.20
2022-12-17T09:39:17.348Z,19.08
2022-12-17T09:42:11.131Z,18.95
2022-12-17T09:45:03.729Z,19.85
2022-12-17T09:48:07.330Z,15.02
2022-12-17T09:50:53.271Z,20.35
2022-12-17T09:53:42.868Z,18.70
2022-12-17T09:56:30.437Z,18.58
2022-12-17T09:59:17.817Z,18.35
2022-12-17T10:02:03.536Z,18.88
2022-12-17T10:04:52.775Z,19.13
2022-12-17T10:07:41.854Z,22.17
2022-12-17T10:10:34.895Z,22.25
2022-12-17T10:13:20.886Z,22.48
2022-12-17T10:16:08.176Z,19.38
2022-12-17T10:18:54.235Z,21.60
2022-12-17T10:21:42.972Z,17.13
2022-12-17T10:24:41.427Z,19.92
2022-12-17T10:27:28.424Z,20.25
2022-12-17T10:30:14.212Z,19.05
2022-12-17T10:33:01.476Z,20.83
2022-12-17T10:35:54.610Z,20.15
2022-12-17T10:38:41.758Z,20.90
2022-12-17T10:41:38.776Z,20.85
2022-12-17T10:44:42.070Z,20.73
2022-12-17T10:47:31.174Z,19.80
2022-12-17T10:50:19.634Z,19.40
2022-12-17T10:53:06.430Z,20.83
2022-12-17T10:55:53.575Z,20.42
2022-12-17T10:58:40.956Z,20.17
2022-12-17T11:01:30.561Z,21.10
2022-12-17T11:04:32.014Z,22.20
2022-12-17T11:07:19.238Z,21.45
2022-12-17T11:10:09.765Z,21.30
2022-12-17T11:12:58.313Z,22.65
2022-12-17T11:15:46.243Z,21.65
2022-12-17T11:18:36.758Z,21.80
2022-12-17T11:21:26.260Z,22.15
2022-12-17T11:24:19.123Z,22.30
2022-12-17T11:27:10.993Z,23.55
2022-12-17T11:29:56.990Z,23.17
2022-12-17T11:33:09.535Z,22.98
2022-12-17T11:36:01.716Z,22.45
2022-12-17T11:38:56.957Z,23.20
2022-12-17T11:41:56.081Z,22.00
2022-12-17T11:44:51.309Z,22.30
2022-12-17T11:47:46.236Z,22.23
2022-12-17T11:50:39.691Z,22.23
2022-12-17T11:53:38.230Z,22.92
2022-12-17T11:56:28.689Z,22.17
2022-12-17T11:59:18.803Z,23.00
2022-12-17T12:02:08.078Z,24.13
2022-12-17T12:05:26.263Z,22.35
2022-12-17T12:08:31.451Z,21.48
2022-12-17T12:11:29.722Z,22.45
2022-12-17T12:14:23.254Z,22.30
2022-12-17T12:17:13.585Z,22.08
2022-12-17T12:20:06.435Z,22.70
2022-12-17T12:22:56.306Z,22.10
2022-12-17T12:25:49.148Z,21.35
2022-12-17T12:28:43.556Z,21.85
2022-12-17T12:31:37.620Z,22.50
2022-12-17T12:34:27.393Z,22.00
2022-12-17T12:37:13.327Z,22.43
2022-12-17T12:40:03.960Z,22.48
2022-12-17T12:45:50.009Z,21.73
2022-12-17T12:48:48.163Z,22.27
2022-12-17T12:51:38.035Z,22.00
2022-12-17T12:54:42.212Z,24.50
2022-12-17T12:57:49.908Z,21.80
2022-12-17T13:00:48.496Z,23.40
2022-12-17T13:03:43.930Z,22.85
2022-12-17T13:06:12.948Z,22.13
2022-12-17T13:08:41.465Z,22.88
2022-12-17T13:11:27.217Z,22.38
2022-12-17T13:13:56.858Z,21.77
2022-12-17T13:16:34.024Z,22.73
2022-12-17T13:19:05.955Z,22.92
2022-12-17T13:21:34.259Z,44.70
2022-12-17T13:24:11.738Z,35.10
2022-12-17T13:26:46.502Z,31.48
2022-12-17T13:29:24.347Z,27.38
2022-12-17T13:32:03.616Z,27.65
2022-12-17T13:34:42.397Z,25.52
2022-12-17T13:37:15.853Z,22.92
2022-12-17T13:39:50.986Z,26.75
2022-12-17T13:42:23.320Z,24.00
2022-12-17T13:44:55.646Z,25.33
2022-12-17T13:47:25.530Z,26.75
2022-12-17T13:50:32.730Z,27.00
2022-12-17T13:52:45.424Z,24.60
2022-12-17T13:55:21.034Z,25.05
2022-12-17T13:57:50.504Z,24.27
2022-12-17T14:00:22.097Z,24.52
2022-12-17T14:02:50.754Z,25.48
2022-12-17T14:05:32.622Z,26.25
2022-12-17T14:08:03.245Z,27.83
2022-12-17T14:13:04.060Z,30.50
2022-12-17T14:15:32.347Z,28.23
2022-12-17T14:18:00.934Z,28.77
2022-12-17T14:20:32.337Z,31.33
2022-12-17T14:23:01.962Z,28.33
2022-12-17T14:25:32.811Z,27.23
2022-12-17T14:28:02.667Z,27.48
2022-12-17T14:30:43.039Z,27.95
2022-12-17T14:33:29.178Z,30.48
2022-12-17T14:36:02.515Z,32.05
2022-12-17T14:38:38.437Z,28.98
2022-12-17T14:41:36.335Z,30.90
2022-12-17T14:44:05.486Z,28.98
2022-12-17T14:46:35.662Z,29.20
2022-12-17T14:49:05.909Z,29.52
2022-12-17T14:51:38.034Z,28.27
2022-12-17T14:54:07.933Z,29.10
2022-12-17T14:56:36.177Z,28.45
2022-12-17T14:59:04.416Z,28.30
2022-12-17T15:01:33.130Z,27.92
2022-12-17T15:04:01.539Z,28.67
2022-12-17T15:06:29.927Z,27.25
2022-12-17T15:08:59.494Z,26.88
2022-12-17T15:11:28.447Z,27.17
2022-12-17T15:13:56.997Z,27.27
2022-12-17T15:16:25.426Z,28.25
2022-12-17T15:18:54.183Z,27.50
2022-12-17T15:21:22.532Z,28.80
2022-12-17T15:23:50.949Z,29.98
2022-12-17T15:26:21.401Z,31.13
2022-12-17T15:28:49.594Z,30.83
2022-12-17T15:31:23.187Z,34.08
2022-12-17T15:33:53.130Z,33.90
2022-12-17T15:36:21.509Z,33.92
2022-12-17T15:38:49.809Z,33.17
2022-12-17T15:41:35.836Z,31.83
2022-12-17T15:44:05.999Z,26.65
2022-12-17T15:46:34.696Z,22.85
2022-12-17T15:49:03.830Z,25.45
2022-12-17T15:51:32.301Z,26.23
2022-12-17T15:54:00.767Z,24.40
2022-12-17T15:56:29.846Z,23.02
2022-12-17T15:58:58.598Z,25.45
2022-12-17T16:01:28.423Z,33.45
2022-12-17T16:03:56.807Z,25.67
2022-12-17T16:06:25.221Z,26.95
2022-12-17T16:08:53.433Z,27.42
2022-12-17T16:11:22.093Z,29.88
2022-12-17T16:13:54.998Z,30.27
2022-12-17T16:16:23.981Z,28.60
2022-12-17T16:18:53.605Z,28.75
2022-12-17T16:21:21.860Z,27.02
2022-12-17T16:23:50.220Z,28.27
2022-12-17T16:26:18.498Z,25.60
2022-12-17T16:28:47.058Z,23.02
2022-12-17T16:31:16.590Z,21.83
2022-12-17T16:33:47.462Z,22.20
2022-12-17T16:36:18.625Z,22.38
2022-12-17T16:38:48.360Z,21.67
2022-12-17T16:41:17.611Z,18.30
2022-12-17T16:43:46.495Z,19.48
2022-12-17T16:46:28.973Z,21.10
2022-12-17T16:48:58.817Z,20.15
2022-12-17T16:51:29.765Z,21.08
2022-12-17T16:53:58.987Z,32.65
2022-12-17T16:56:29.168Z,41.13
2022-12-17T16:58:57.692Z,33.38
2022-12-17T17:01:28.168Z,23.77
2022-12-17T17:03:57.399Z,24.75
2022-12-17T17:06:30.260Z,23.25
2022-12-17T17:09:04.647Z,23.45
2022-12-17T17:11:32.958Z,24.17
2022-12-17T17:14:01.305Z,23.42
2022-12-17T17:16:30.419Z,23.02
2022-12-17T17:18:58.761Z,23.33
2022-12-17T17:21:29.524Z,24.60
2022-12-17T17:23:59.953Z,22.90
2022-12-17T17:28:58.323Z,26.33
2022-12-17T17:32:01.061Z,22.80
2022-12-17T17:34:15.958Z,22.30
2022-12-17T17:36:44.331Z,20.50
2022-12-17T17:39:12.600Z,19.98
2022-12-17T17:41:42.304Z,20.08
2022-12-17T17:44:13.211Z,19.33
2022-12-17T17:46:41.811Z,30.27
2022-12-17T17:49:11.897Z,22.85
2022-12-17T17:52:12.354Z,25.70
2022-12-17T17:54:30.728Z,26.52
2022-12-17T17:57:00.359Z,27.88
2022-12-17T17:59:33.395Z,26.02
2022-12-17T18:02:02.451Z,25.17
2022-12-17T18:04:31.702Z,25.83
2022-12-17T18:07:24.152Z,31.00
2022-12-17T18:09:48.203Z,29.27
2022-12-17T18:12:35.512Z,28.98
2022-12-17T18:15:19.102Z,30.88
2022-12-17T18:17:51.004Z,30.25
2022-12-17T18:20:20.607Z,32.45
2022-12-17T18:22:50.488Z,34.28
2022-12-17T18:25:18.940Z,34.00
2022-12-17T18:27:48.720Z,35.80
2022-12-17T18:30:17.311Z,43.47
2022-12-17T18:32:46.203Z,36.15
2022-12-17T18:35:14.505Z,30.20
2022-12-17T18:37:42.843Z,40.53
2022-12-17T18:40:11.857Z,39.53
2022-12-17T18:42:57.754Z,39.40
2022-12-17T18:45:27.320Z,43.00
2022-12-17T18:47:55.545Z,42.05
2022-12-17T18:50:23.877Z,38.03
2022-12-17T18:52:52.130Z,41.40
2022-12-17T18:55:20.439Z,41.97
2022-12-17T18:57:48.693Z,42.38
2022-12-17T19:00:17.173Z,43.08
2022-12-17T19:02:46.930Z,46.53
2022-12-17T19:05:15.487Z,45.92
2022-12-17T19:07:43.804Z,40.42
2022-12-17T19:10:12.082Z,37.08
2022-12-17T19:12:40.397Z,30.60
2022-12-17T19:15:09.957Z,30.45
2022-12-17T19:17:38.178Z,31.07
2022-12-17T19:20:09.228Z,27.73
2022-12-17T19:22:37.532Z,27.35
2022-12-17T19:25:06.511Z,32.28
2022-12-17T19:27:34.722Z,31.73
2022-12-17T19:30:02.991Z,32.40
2022-12-17T19:32:31.539Z,30.05
2022-12-17T19:34:59.748Z,22.83
2022-12-17T19:37:29.429Z,49.17
2022-12-17T19:39:57.702Z,41.08
2022-12-17T19:42:26.909Z,34.25
2022-12-17T19:44:56.747Z,38.63
2022-12-17T19:47:25.248Z,30.70
2022-12-17T19:49:53.540Z,36.40
2022-12-17T19:52:21.805Z,31.92
2022-12-17T19:54:51.462Z,36.05
2022-12-17T19:57:19.805Z,36.00
2022-12-17T19:59:48.068Z,32.53
2022-12-17T20:02:17.432Z,29.42
2022-12-17T20:04:45.854Z,31.20
2022-12-17T20:07:14.055Z,36.70
2022-12-17T20:09:44.608Z,33.83
2022-12-17T20:12:14.248Z,35.63
2022-12-17T20:14:42.516Z,38.17
2022-12-17T20:17:10.995Z,32.67
2022-12-17T20:19:39.303Z,36.40
2022-12-17T20:22:07.865Z,39.85
2022-12-17T20:24:37.266Z,39.55
2022-12-17T20:27:05.831Z,42.92
2022-12-17T20:29:35.826Z,41.15
2022-12-17T20:32:04.252Z,37.45
2022-12-17T20:34:32.778Z,42.53
2022-12-17T20:37:01.082Z,35.25
2022-12-17T20:39:29.912Z,38.47
2022-12-17T20:41:58.540Z,36.15
2022-12-17T20:44:26.922Z,33.92
2022-12-17T20:46:56.633Z,33.38
2022-12-17T20:49:24.891Z,34.30
2022-12-17T20:51:53.182Z,35.10
2022-12-17T20:54:22.138Z,38.80
2022-12-17T20:56:50.401Z,33.70
2022-12-17T20:59:19.770Z,35.78
2022-12-17T21:01:54.260Z,38.20
2022-12-17T21:04:25.582Z,37.15
2022-12-17T21:06:53.887Z,36.42
2022-12-17T21:09:22.863Z,38.20
2022-12-17T21:11:51.304Z,37.63
2022-12-17T21:14:20.298Z,35.08
2022-12-17T21:16:48.692Z,40.45
2022-12-17T21:19:18.848Z,37.70
2022-12-17T21:21:48.814Z,34.85
2022-12-17T21:24:17.155Z,32.08
2022-12-17T21:26:47.226Z,32.40
2022-12-17T21:29:16.601Z,29.83
2022-12-17T21:31:46.820Z,34.40
2022-12-17T21:34:17.988Z,30.85
2022-12-17T21:36:48.392Z,31.02
2022-12-17T21:39:17.943Z,35.60
2022-12-17T21:42:07.374Z,37.13
2022-12-17T21:44:36.613Z,36.47
2022-12-17T21:47:05.499Z,31.05
2022-12-17T21:49:34.833Z,28.45
2022-12-17T21:52:08.454Z,32.70
2022-12-17T21:54:40.302Z,34.33
2022-12-17T21:57:09.435Z,34.15
2022-12-17T21:59:38.418Z,31.15
2022-12-17T22:02:07.376Z,33.50
2022-12-17T22:04:36.451Z,29.25
2022-12-17T22:07:17.388Z,30.45
2022-12-17T22:10:22.535Z,29.30
2022-12-17T22:13:00.611Z,30.30
2022-12-17T22:15:32.118Z,30.48
2022-12-17T22:18:05.282Z,25.60
2022-12-17T22:20:33.608Z,31.58
2022-12-17T22:23:04.810Z,25.15
2022-12-17T22:25:33.230Z,26.65
2022-12-17T22:28:01.497Z,33.28
2022-12-17T22:30:47.344Z,28.45
2022-12-17T22:33:39.692Z,21.20
2022-12-17T22:38:41.682Z,29.90
2022-12-17T22:43:03.241Z,30.95
2022-12-17T22:44:43.046Z,33.88
2022-12-17T22:44:53.268Z,37.13
2022-12-17T22:47:22.491Z,35.92
2022-12-17T22:49:50.791Z,35.58
2022-12-17T22:52:20.379Z,29.35
2022-12-17T22:54:50.432Z,30.40
2022-12-17T22:57:37.379Z,28.85
2022-12-17T23:00:13.108Z,33.13
2022-12-17T23:02:41.354Z,37.70
2022-12-17T23:05:10.441Z,25.98
2022-12-17T23:07:38.661Z,29.55
2022-12-17T23:10:09.011Z,33.75
2022-12-17T23:12:52.508Z,32.92
2022-12-17T23:15:24.564Z,32.45
2022-12-17T23:17:54.526Z,33.40
2022-12-17T23:20:23.695Z,32.53
2022-12-17T23:22:51.939Z,33.33
2022-12-17T23:25:22.489Z,29.85
2022-12-17T23:27:51.026Z,32.88
2022-12-17T23:30:20.677Z,27.58
2022-12-17T23:32:49.182Z,33.05
2022-12-17T23:35:17.506Z,28.55
2022-12-17T23:37:45.835Z,34.95
2022-12-17T23:40:14.832Z,30.08
2022-12-17T23:42:44.419Z,32.97
2022-12-17T23:45:13.704Z,32.67
2022-12-17T23:47:42.079Z,28.85
2022-12-17T23:50:11.223Z,25.70
2022-12-17T23:52:39.611Z,32.08
2022-12-17T23:55:08.733Z,28.58
2022-12-17T23:57:36.966Z,27.42
